createdAt,value
2022-10-11T00:01:50.529Z,99.90
2022-10-11T00:04:17.155Z,99.90
2022-10-11T00:06:43.937Z,99.90
2022-10-11T00:09:14.765Z,99.90
2022-10-11T00:11:41.486Z,99.90
2022-10-11T00:14:08.671Z,99.90
2022-10-11T00:16:35.337Z,99.90
2022-10-11T00:19:01.980Z,99.90
2022-10-11T00:21:28.746Z,99.90
2022-10-11T00:23:55.383Z,99.90
2022-10-11T00:26:22.039Z,99.90
2022-10-11T00:28:51.290Z,99.90
2022-10-11T00:31:18.094Z,99.90
2022-10-11T00:33:44.818Z,99.90
2022-10-11T00:36:14.578Z,99.90
2022-10-11T00:38:41.280Z,99.90
2022-10-11T00:41:07.999Z,99.90
2022-10-11T00:43:34.722Z,99.90
2022-10-11T00:46:06.751Z,99.90
2022-10-11T00:48:39.221Z,99.90
2022-10-11T00:51:10.161Z,99.90
2022-10-11T00:53:36.869Z,99.90
2022-10-11T00:56:07.345Z,99.90
2022-10-11T00:58:35.889Z,99.90
2022-10-11T01:01:02.834Z,99.90
2022-10-11T01:03:30.533Z,99.90
2022-10-11T01:05:57.174Z,99.90
2022-10-11T01:08:24.317Z,99.90
2022-10-11T01:10:51.973Z,99.90
2022-10-11T01:13:46.107Z,99.90
2022-10-11T01:16:12.749Z,99.90
2022-10-11T01:18:39.399Z,99.90
2022-10-11T01:21:09.057Z,99.90
2022-10-11T01:23:41.561Z,99.90
2022-10-11T01:26:11.293Z,99.90
2022-10-11T01:28:50.338Z,99.90
2022-10-11T01:31:26.620Z,99.90
2022-10-11T01:34:02.022Z,99.90
2022-10-11T01:36:32.520Z,99.90
2022-10-11T01:38:59.140Z,99.90
2022-10-11T01:41:28.689Z,99.90
2022-10-11T01:43:57.569Z,99.90
2022-10-11T01:46:24.691Z,99.90
2022-10-11T01:48:53.597Z,99.90
2022-10-11T01:51:22.883Z,99.90
2022-10-11T01:54:04.591Z,99.90
2022-10-11T01:56:42.832Z,99.90
2022-10-11T01:59:09.782Z,99.90
2022-10-11T02:01:42.419Z,99.90
2022-10-11T02:04:17.907Z,99.90
2022-10-11T02:06:51.142Z,99.90
2022-10-11T02:09:24.200Z,99.90
2022-10-11T02:11:53.092Z,99.90
2022-10-11T02:14:24.904Z,99.90
2022-10-11T02:16:57.186Z,99.90
2022-10-11T02:19:27.524Z,99.90
2022-10-11T02:21:56.637Z,99.90
2022-10-11T02:24:28.379Z,99.90
2022-10-11T02:26:57.043Z,99.90
2022-10-11T02:29:27.881Z,99.90
2022-10-11T02:31:56.714Z,99.90
2022-10-11T02:34:26.020Z,99.90
2022-10-11T02:37:01.860Z,99.90
2022-10-11T02:39:39.903Z,99.90
2022-10-11T02:42:09.658Z,99.90
2022-10-11T02:44:38.397Z,99.90
2022-10-11T02:47:05.893Z,99.90
2022-10-11T02:49:32.803Z,99.90
2022-10-11T02:51:59.480Z,99.90
2022-10-11T02:54:26.463Z,99.90
2022-10-11T02:56:53.140Z,99.90
2022-10-11T02:59:19.800Z,99.90
2022-10-11T03:01:46.616Z,99.90
2022-10-11T03:04:13.753Z,99.90
2022-10-11T03:06:40.408Z,99.90
2022-10-11T03:09:07.251Z,99.90
2022-10-11T03:11:34.095Z,99.90
2022-10-11T03:14:00.771Z,99.90
2022-10-11T03:16:27.391Z,99.90
2022-10-11T03:18:54.093Z,99.90
2022-10-11T03:21:20.787Z,99.90
2022-10-11T03:23:47.516Z,99.90
2022-10-11T03:26:14.226Z,99.90
2022-10-11T03:28:41.173Z,99.90
2022-10-11T03:31:08.152Z,99.90
2022-10-11T03:33:34.954Z,99.90
2022-10-11T03:36:01.777Z,99.90
2022-10-11T03:38:28.600Z,99.90
2022-10-11T03:40:55.301Z,99.90
2022-10-11T03:43:21.957Z,99.90
2022-10-11T03:45:48.768Z,99.90
2022-10-11T03:48:15.450Z,99.90
2022-10-11T03:50:42.168Z,99.90
2022-10-11T03:53:08.885Z,99.90
2022-10-11T03:55:37.646Z,99.90
2022-10-11T03:58:04.287Z,99.90
2022-10-11T04:00:30.973Z,99.90
2022-10-11T04:02:57.644Z,99.90
2022-10-11T04:05:24.325Z,99.90
2022-10-11T04:07:51.147Z,99.90
2022-10-11T04:10:17.893Z,99.90
2022-10-11T04:12:44.544Z,99.90
2022-10-11T04:15:14.148Z,99.90
2022-10-11T04:17:41.309Z,99.90
2022-10-11T04:20:08.323Z,99.90
2022-10-11T04:22:35.045Z,99.90
2022-10-11T04:25:01.749Z,99.90
2022-10-11T04:27:28.937Z,99.90
2022-10-11T04:29:55.851Z,99.90
2022-10-11T04:32:22.554Z,99.90
2022-10-11T04:34:49.220Z,99.90
2022-10-11T04:37:15.877Z,99.90
2022-10-11T04:39:42.575Z,99.90
2022-10-11T04:42:09.376Z,99.90
2022-10-11T04:44:36.024Z,99.90
2022-10-11T04:47:02.726Z,99.90
2022-10-11T04:49:29.389Z,99.90
2022-10-11T04:51:56.283Z,99.90
2022-10-11T04:54:23.039Z,99.90
2022-10-11T04:56:49.763Z,99.90
2022-10-11T04:59:16.413Z,99.90
2022-10-11T05:01:43.172Z,99.90
2022-10-11T05:04:09.960Z,99.90
2022-10-11T05:06:36.660Z,99.90
2022-10-11T05:09:03.541Z,99.90
2022-10-11T05:11:30.621Z,99.90
2022-10-11T05:13:57.291Z,99.90
2022-10-11T05:16:24.115Z,99.90
2022-10-11T05:18:50.758Z,99.90
2022-10-11T05:21:18.721Z,99.90
2022-10-11T05:23:46.271Z,99.90
2022-10-11T05:26:13.223Z,99.90
2022-10-11T05:28:40.019Z,99.90
2022-10-11T05:31:06.817Z,99.90
2022-10-11T05:33:33.587Z,99.90
2022-10-11T05:36:00.656Z,99.90
2022-10-11T05:38:27.465Z,99.90
2022-10-11T05:40:54.641Z,99.90
2022-10-11T05:43:21.334Z,99.90
2022-10-11T05:45:48.184Z,99.90
2022-10-11T05:48:14.805Z,99.90
2022-10-11T05:50:41.473Z,99.90
2022-10-11T05:53:08.227Z,99.90
2022-10-11T05:55:35.627Z,99.90
2022-10-11T05:58:02.278Z,99.90
2022-10-11T06:00:29.041Z,99.90
2022-10-11T06:02:55.724Z,99.90
2022-10-11T06:05:22.388Z,99.90
2022-10-11T06:07:49.035Z,99.90
2022-10-11T06:10:15.726Z,99.90
2022-10-11T06:12:42.421Z,99.90
2022-10-11T06:15:10.841Z,99.90
2022-10-11T06:17:37.690Z,99.90
2022-10-11T06:20:04.552Z,99.90
2022-10-11T06:22:31.261Z,99.90
2022-10-11T06:24:57.905Z,99.90
2022-10-11T06:27:24.692Z,99.90
2022-10-11T06:29:51.472Z,99.90
2022-10-11T06:32:18.189Z,99.90
2022-10-11T06:34:44.864Z,99.90
2022-10-11T06:37:11.545Z,99.90
2022-10-11T06:39:38.287Z,99.90
2022-10-11T06:42:04.973Z,99.90
2022-10-11T06:44:31.705Z,99.90
2022-10-11T06:46:58.397Z,99.90
2022-10-11T06:49:25.066Z,99.90
2022-10-11T06:51:51.794Z,99.90
2022-10-11T06:54:18.431Z,99.90
2022-10-11T06:56:45.760Z,99.90
2022-10-11T06:59:13.509Z,99.90
2022-10-11T07:01:40.339Z,99.90
2022-10-11T07:04:07.326Z,99.90
2022-10-11T07:06:36.295Z,99.90
2022-10-11T07:09:03.410Z,99.90
2022-10-11T07:11:30.364Z,99.90
2022-10-11T07:13:58.839Z,99.90
2022-10-11T07:16:25.637Z,99.90
2022-10-11T07:18:58.803Z,99.90
2022-10-11T07:21:27.270Z,99.90
2022-10-11T07:23:53.928Z,99.90
2022-10-11T07:26:20.680Z,99.90
2022-10-11T07:28:47.573Z,99.90
2022-10-11T07:31:16.043Z,99.90
2022-10-11T07:33:43.111Z,99.90
2022-10-11T07:36:10.083Z,99.90
2022-10-11T07:38:38.914Z,99.90
2022-10-11T07:41:06.123Z,99.90
2022-10-11T07:43:32.932Z,99.90
2022-10-11T07:46:04.415Z,99.90
2022-10-11T07:48:32.020Z,99.90
2022-10-11T07:51:18.326Z,99.90
2022-10-11T07:53:46.632Z,99.90
2022-10-11T07:56:14.830Z,99.90
2022-10-11T07:58:42.040Z,99.90
2022-10-11T08:01:09.469Z,99.90
2022-10-11T08:03:36.734Z,99.90
2022-10-11T08:06:05.351Z,99.90
2022-10-11T08:08:32.346Z,99.90
2022-10-11T08:10:59.544Z,99.90
2022-10-11T08:13:26.393Z,99.90
2022-10-11T08:15:53.363Z,99.90
2022-10-11T08:18:20.084Z,99.90
2022-10-11T08:20:47.049Z,99.90
2022-10-11T08:23:13.818Z,99.90
2022-10-11T08:25:41.243Z,99.90
2022-10-11T08:28:08.646Z,99.90
2022-10-11T08:30:35.823Z,99.90
2022-10-11T08:33:07.581Z,99.90
2022-10-11T08:35:38.107Z,99.90
2022-10-11T08:38:04.958Z,99.90
2022-10-11T08:40:35.127Z,99.90
2022-10-11T08:43:06.669Z,99.90
2022-10-11T08:45:42.702Z,99.80
2022-10-11T08:48:15.399Z,99.50
2022-10-11T08:50:44.369Z,98.80
2022-10-11T08:53:18.503Z,96.30
2022-10-11T08:55:48.497Z,95.40
2022-10-11T08:58:17.270Z,95.50
2022-10-11T09:00:44.553Z,93.90
2022-10-11T09:03:21.644Z,92.20
2022-10-11T09:05:57.452Z,93.20
2022-10-11T09:08:29.427Z,91.50
2022-10-11T09:11:19.425Z,91.90
2022-10-11T09:14:04.438Z,90.30
2022-10-11T09:16:36.914Z,88.70
2022-10-11T09:19:09.772Z,90.00
2022-10-11T09:21:48.526Z,86.90
2022-10-11T09:24:21.377Z,86.70
2022-10-11T09:26:59.921Z,88.70
2022-10-11T09:29:27.198Z,85.00
2022-10-11T09:31:55.019Z,84.10
2022-10-11T09:34:23.952Z,85.10
2022-10-11T09:37:00.634Z,80.30
2022-10-11T09:39:30.116Z,78.70
2022-10-11T09:41:56.736Z,78.30
2022-10-11T09:44:24.452Z,77.00
2022-10-11T09:46:51.819Z,75.10
2022-10-11T09:49:19.579Z,73.30
2022-10-11T09:51:51.091Z,79.70
2022-10-11T09:54:18.278Z,78.50
2022-10-11T09:56:45.928Z,74.30
2022-10-11T09:59:21.656Z,77.80
2022-10-11T10:01:49.049Z,78.40
2022-10-11T10:04:19.235Z,81.20
2022-10-11T10:06:46.000Z,80.30
2022-10-11T10:09:26.240Z,80.50
2022-10-11T10:11:54.137Z,80.50
2022-10-11T10:14:38.855Z,78.30
2022-10-11T10:17:08.654Z,74.60
2022-10-11T10:19:46.940Z,77.30
2022-10-11T10:22:18.788Z,76.60
2022-10-11T10:24:46.461Z,75.00
2022-10-11T10:27:18.095Z,75.60
2022-10-11T10:29:59.199Z,75.10
2022-10-11T10:32:28.284Z,74.30
2022-10-11T10:35:16.788Z,71.60
2022-10-11T10:38:06.465Z,74.10
2022-10-11T10:40:39.136Z,70.70
2022-10-11T10:43:06.113Z,68.40
2022-10-11T10:45:44.282Z,66.80
2022-10-11T10:48:10.974Z,67.10
2022-10-11T10:50:40.356Z,68.20
2022-10-11T10:53:20.854Z,69.70
2022-10-11T10:55:52.022Z,69.40
2022-10-11T10:58:24.964Z,64.80
2022-10-11T11:01:21.244Z,65.80
2022-10-11T11:03:52.342Z,68.60
2022-10-11T11:06:26.713Z,64.70
2022-10-11T11:08:59.277Z,65.20
2022-10-11T11:11:44.736Z,64.00
2022-10-11T11:14:30.302Z,62.40
2022-10-11T11:17:06.018Z,62.50
2022-10-11T11:19:38.937Z,64.60
2022-10-11T11:22:14.655Z,65.80
2022-10-11T11:24:47.358Z,63.80
2022-10-11T11:27:32.956Z,62.60
2022-10-11T11:30:13.777Z,60.40
2022-10-11T11:32:46.672Z,60.00
2022-10-11T11:35:25.503Z,59.90
2022-10-11T11:38:00.175Z,61.30
2022-10-11T11:40:34.886Z,60.50
2022-10-11T11:43:05.076Z,58.30
2022-10-11T11:45:45.639Z,59.60
2022-10-11T11:48:24.779Z,59.50
2022-10-11T11:50:56.626Z,58.50
2022-10-11T11:53:29.567Z,60.10
2022-10-11T11:56:03.438Z,57.70
2022-10-11T11:58:30.159Z,58.40
2022-10-11T12:00:56.770Z,58.70
2022-10-11T12:03:43.708Z,59.60
2022-10-11T12:06:16.226Z,57.70
2022-10-11T12:08:48.026Z,56.50
2022-10-11T12:11:31.689Z,56.80
2022-10-11T12:14:03.813Z,55.70
2022-10-11T12:16:31.049Z,57.30
2022-10-11T12:18:57.660Z,58.90
2022-10-11T12:21:30.612Z,57.60
2022-10-11T12:23:58.663Z,57.50
2022-10-11T12:26:28.307Z,58.60
2022-10-11T12:29:01.018Z,56.10
2022-10-11T12:31:29.165Z,55.80
2022-10-11T12:34:01.709Z,55.80
2022-10-11T12:36:29.583Z,58.00
2022-10-11T12:39:14.813Z,56.30
2022-10-11T12:41:47.538Z,55.00
2022-10-11T12:44:20.641Z,54.00
2022-10-11T12:46:50.343Z,56.60
2022-10-11T12:49:16.976Z,56.20
2022-10-11T12:51:43.654Z,55.40
2022-10-11T12:54:29.067Z,54.50
2022-10-11T12:57:01.626Z,55.50
2022-10-11T12:59:31.144Z,56.00
2022-10-11T13:01:58.812Z,54.70
2022-10-11T13:04:26.940Z,53.40
2022-10-11T13:06:55.237Z,55.10
2022-10-11T13:09:28.856Z,55.90
2022-10-11T13:12:09.416Z,55.90
2022-10-11T13:14:43.213Z,54.00
2022-10-11T13:17:19.393Z,54.10
2022-10-11T13:19:46.323Z,53.40
2022-10-11T13:22:18.330Z,52.90
2022-10-11T13:24:45.112Z,52.90
2022-10-11T13:27:23.002Z,52.50
2022-10-11T13:29:50.970Z,52.70
2022-10-11T13:32:25.099Z,52.20
2022-10-11T13:37:28.919Z,53.30
2022-10-11T13:39:56.673Z,52.20
2022-10-11T13:42:31.061Z,52.50
2022-10-11T13:44:58.536Z,51.80
2022-10-11T13:47:27.358Z,51.90
2022-10-11T13:50:19.096Z,52.00
2022-10-11T13:52:54.764Z,51.30
2022-10-11T13:55:40.637Z,53.60
2022-10-11T13:58:17.770Z,54.20
2022-10-11T14:00:56.236Z,55.10
2022-10-11T14:03:24.705Z,53.60
2022-10-11T14:05:58.531Z,54.40
2022-10-11T14:08:34.416Z,55.30
2022-10-11T14:11:06.060Z,56.30
2022-10-11T14:13:33.357Z,56.30
2022-10-11T14:16:08.291Z,58.80
2022-10-11T14:18:39.306Z,57.50
2022-10-11T14:21:24.791Z,56.10
2022-10-11T14:23:53.146Z,57.00
2022-10-11T14:26:20.317Z,56.20
2022-10-11T14:28:51.887Z,55.20
2022-10-11T14:31:18.652Z,56.80
2022-10-11T14:33:45.361Z,56.60
2022-10-11T14:36:12.078Z,57.20
2022-10-11T14:38:38.826Z,57.00
2022-10-11T14:41:05.601Z,56.10
2022-10-11T14:43:32.275Z,56.00
2022-10-11T14:45:58.983Z,56.40
2022-10-11T14:48:53.773Z,56.90
2022-10-11T14:51:12.994Z,59.60
2022-10-11T14:53:46.034Z,59.10
2022-10-11T14:56:16.623Z,60.10
2022-10-11T14:58:45.741Z,59.70
2022-10-11T15:01:13.771Z,59.60
2022-10-11T15:03:41.037Z,59.20
2022-10-11T15:06:14.409Z,58.60
2022-10-11T15:08:41.066Z,58.50
2022-10-11T15:11:07.846Z,58.80
2022-10-11T15:13:34.525Z,58.40
2022-10-11T15:16:02.289Z,59.60
2022-10-11T15:18:29.247Z,59.60
2022-10-11T15:20:57.999Z,60.40
2022-10-11T15:23:24.707Z,61.00
2022-10-11T15:25:53.782Z,61.70
2022-10-11T15:28:26.033Z,62.50
2022-10-11T15:30:52.876Z,63.70
2022-10-11T15:33:19.598Z,63.90
2022-10-11T15:35:46.386Z,64.60
2022-10-11T15:38:23.983Z,64.80
2022-10-11T15:40:51.115Z,65.30
2022-10-11T15:43:24.288Z,65.00
2022-10-11T15:45:51.758Z,64.20
2022-10-11T15:48:21.463Z,64.00
2022-10-11T15:50:49.461Z,65.70
2022-10-11T15:53:17.234Z,65.50
2022-10-11T15:55:49.636Z,66.40
2022-10-11T15:58:17.568Z,66.40
2022-10-11T16:00:45.546Z,68.00
2022-10-11T16:03:13.242Z,68.80
2022-10-11T16:05:40.446Z,70.00
2022-10-11T16:08:07.379Z,70.90
2022-10-11T16:10:34.639Z,72.70
2022-10-11T16:13:02.101Z,73.90
2022-10-11T16:15:28.820Z,74.50
2022-10-11T16:17:55.535Z,75.20
2022-10-11T16:20:24.607Z,75.30
2022-10-11T16:22:54.257Z,73.90
2022-10-11T16:25:21.425Z,75.60
2022-10-11T16:27:48.278Z,77.90
2022-10-11T16:30:18.313Z,78.50
2022-10-11T16:32:45.242Z,80.10
2022-10-11T16:35:13.184Z,81.10
2022-10-11T16:37:40.036Z,81.90
2022-10-11T16:40:08.037Z,83.10
2022-10-11T16:42:35.280Z,84.10
2022-10-11T16:45:01.947Z,84.60
2022-10-11T16:47:28.627Z,87.50
2022-10-11T16:49:55.451Z,88.60
2022-10-11T16:52:22.102Z,88.30
2022-10-11T16:54:48.911Z,88.60
2022-10-11T16:57:17.613Z,88.90
2022-10-11T16:59:44.325Z,89.90
2022-10-11T17:02:18.370Z,90.30
2022-10-11T17:04:45.603Z,91.00
2022-10-11T17:07:13.072Z,91.50
2022-10-11T17:09:43.902Z,91.30
2022-10-11T17:12:13.413Z,92.00
2022-10-11T17:14:40.654Z,92.10
2022-10-11T17:17:08.174Z,92.70
2022-10-11T17:19:34.909Z,92.40
2022-10-11T17:22:01.620Z,92.40
2022-10-11T17:24:28.389Z,92.70
2022-10-11T17:26:55.162Z,92.80
2022-10-11T17:29:22.155Z,93.10
2022-10-11T17:31:49.470Z,93.10
2022-10-11T17:34:16.807Z,93.40
2022-10-11T17:36:43.634Z,93.40
2022-10-11T17:39:14.853Z,93.40
2022-10-11T17:41:42.158Z,93.70
2022-10-11T17:44:09.032Z,94.00
2022-10-11T17:46:35.755Z,94.80
2022-10-11T17:49:04.919Z,95.60
2022-10-11T17:51:31.740Z,95.40
2022-10-11T17:53:58.541Z,95.30
2022-10-11T17:56:29.559Z,95.20
2022-10-11T17:58:59.197Z,95.30
2022-10-11T18:01:27.125Z,95.50
2022-10-11T18:03:56.789Z,95.40
2022-10-11T18:06:24.292Z,95.40
2022-10-11T18:08:51.176Z,95.40
2022-10-11T18:11:18.881Z,95.40
2022-10-11T18:13:48.054Z,96.10
2022-10-11T18:16:16.263Z,96.50
2022-10-11T18:18:43.011Z,97.60
2022-10-11T18:21:10.184Z,97.30
2022-10-11T18:23:38.276Z,97.50
2022-10-11T18:26:09.242Z,97.30
2022-10-11T18:28:36.317Z,97.40
2022-10-11T18:31:11.554Z,97.40
2022-10-11T18:33:39.799Z,97.80
2022-10-11T18:36:07.302Z,98.00
2022-10-11T18:38:35.951Z,98.40
2022-10-11T18:41:06.889Z,98.40
2022-10-11T18:43:34.298Z,98.60
2022-10-11T18:46:09.151Z,98.50
2022-10-11T18:48:36.407Z,98.80
2022-10-11T18:51:05.915Z,99.00
2022-10-11T18:53:34.266Z,99.00
2022-10-11T18:56:01.699Z,99.10
2022-10-11T18:58:32.245Z,99.10
2022-10-11T19:01:05.541Z,99.30
2022-10-11T19:03:35.149Z,99.10
2022-10-11T19:06:03.482Z,99.30
2022-10-11T19:08:30.909Z,99.30
2022-10-11T19:10:58.141Z,99.80
2022-10-11T19:13:24.901Z,99.70
2022-10-11T19:15:51.759Z,99.90
2022-10-11T19:18:20.578Z,99.90
2022-10-11T19:20:47.482Z,99.90
2022-10-11T19:23:14.267Z,99.90
2022-10-11T19:25:42.085Z,99.90
2022-10-11T19:28:12.407Z,99.90
2022-10-11T19:30:42.452Z,99.90
2022-10-11T19:33:11.591Z,99.90
2022-10-11T19:35:38.342Z,99.90
2022-10-11T19:38:05.112Z,99.90
2022-10-11T19:40:33.785Z,99.90
2022-10-11T19:43:01.065Z,99.90
2022-10-11T19:45:27.836Z,99.90
2022-10-11T19:47:54.561Z,99.90
2022-10-11T19:50:21.373Z,99.90
2022-10-11T19:52:48.157Z,99.90
2022-10-11T19:55:15.158Z,99.90
2022-10-11T19:57:41.980Z,99.90
2022-10-11T20:00:09.189Z,99.90
2022-10-11T20:02:35.973Z,99.90
2022-10-11T20:05:02.866Z,99.90
2022-10-11T20:07:30.013Z,99.90
2022-10-11T20:09:56.972Z,99.90
2022-10-11T20:12:23.728Z,99.90
2022-10-11T20:14:50.555Z,99.90
2022-10-11T20:17:17.402Z,99.90
2022-10-11T20:19:44.223Z,99.90
2022-10-11T20:22:11.113Z,99.90
2022-10-11T20:24:39.727Z,99.90
2022-10-11T20:27:06.773Z,99.90
2022-10-11T20:29:33.747Z,99.90
2022-10-11T20:32:00.560Z,99.90
2022-10-11T20:34:28.322Z,99.90
2022-10-11T20:36:55.261Z,99.90
2022-10-11T20:39:21.996Z,99.90
2022-10-11T20:41:48.732Z,99.90
2022-10-11T20:44:16.425Z,99.90
2022-10-11T20:46:43.229Z,99.90
2022-10-11T20:49:11.283Z,99.90
2022-10-11T20:51:39.260Z,99.90
2022-10-11T20:54:06.302Z,99.90
2022-10-11T20:56:33.933Z,99.90
2022-10-11T20:59:00.889Z,99.90
2022-10-11T21:01:29.408Z,99.90
2022-10-11T21:03:59.996Z,99.90
2022-10-11T21:06:27.157Z,99.90
2022-10-11T21:08:58.995Z,99.90
2022-10-11T21:11:29.996Z,99.90
2022-10-11T21:13:57.711Z,99.90
2022-10-11T21:16:24.994Z,99.90
2022-10-11T21:18:52.385Z,99.90
2022-10-11T21:21:19.547Z,99.90
2022-10-11T21:23:46.317Z,99.90
2022-10-11T21:26:14.522Z,99.90
2022-10-11T21:28:41.345Z,99.90
2022-10-11T21:31:12.493Z,99.90
2022-10-11T21:33:39.775Z,99.90
2022-10-11T21:36:07.658Z,99.90
2022-10-11T21:38:34.666Z,99.90
2022-10-11T21:41:11.738Z,99.90
2022-10-11T21:43:38.985Z,99.90
2022-10-11T21:46:12.547Z,99.90
2022-10-11T21:48:39.319Z,99.90
2022-10-11T21:51:06.672Z,99.90
2022-10-11T21:53:33.670Z,99.90
2022-10-11T21:56:00.695Z,99.90
2022-10-11T21:58:27.524Z,99.90
2022-10-11T22:00:54.779Z,99.90
2022-10-11T22:03:21.524Z,99.90
2022-10-11T22:05:48.333Z,99.90
2022-10-11T22:08:15.082Z,99.90
2022-10-11T22:10:45.327Z,99.90
2022-10-11T22:13:12.021Z,99.90
2022-10-11T22:15:39.178Z,99.90
2022-10-11T22:18:05.870Z,99.90
2022-10-11T22:20:32.616Z,99.90
2022-10-11T22:22:59.304Z,99.90
2022-10-11T22:25:25.963Z,99.90
2022-10-11T22:27:52.634Z,99.90
2022-10-11T22:30:19.308Z,99.90
2022-10-11T22:32:45.999Z,99.90
2022-10-11T22:35:12.697Z,99.90
2022-10-11T22:37:39.390Z,99.90
2022-10-11T22:40:06.356Z,99.90
2022-10-11T22:42:32.988Z,99.90
2022-10-11T22:44:59.985Z,99.90
2022-10-11T22:47:26.809Z,99.90
2022-10-11T22:49:53.454Z,99.90
2022-10-11T22:52:20.151Z,99.90
2022-10-11T22:54:46.790Z,99.90
2022-10-11T22:57:13.476Z,99.90
2022-10-11T22:59:40.206Z,99.90
2022-10-11T23:02:06.858Z,99.90
2022-10-11T23:04:33.518Z,99.90
2022-10-11T23:07:04.067Z,99.90
2022-10-11T23:09:31.760Z,99.90
2022-10-11T23:11:58.900Z,99.90
2022-10-11T23:14:25.589Z,99.90
2022-10-11T23:16:52.291Z,99.90
2022-10-11T23:19:19.109Z,99.90
2022-10-11T23:21:46.620Z,99.90
2022-10-11T23:24:13.427Z,99.90
2022-10-11T23:26:40.066Z,99.90
2022-10-11T23:29:06.856Z,99.90
2022-10-11T23:31:33.482Z,99.90
2022-10-11T23:34:00.149Z,99.90
2022-10-11T23:36:26.841Z,99.90
2022-10-11T23:38:57.499Z,99.90
2022-10-11T23:41:25.897Z,99.90
2022-10-11T23:43:53.092Z,99.90
2022-10-11T23:46:20.069Z,99.90
2022-10-11T23:48:46.728Z,99.90
2022-10-11T23:51:13.497Z,99.90
2022-10-11T23:53:40.420Z,99.90
2022-10-11T23:56:07.370Z,99.90
2022-10-11T23:58:34.460Z,99.90
